createdAt,value
2022-10-02T00:01:13.038Z,43.42
2022-10-02T00:03:39.515Z,43.44
2022-10-02T00:06:10.519Z,43.46
2022-10-02T00:08:38.871Z,43.51
2022-10-02T00:11:12.612Z,43.39
2022-10-02T00:13:48.022Z,43.26
2022-10-02T00:16:37.757Z,43.47
2022-10-02T00:19:04.721Z,43.34
2022-10-02T00:21:41.391Z,43.43
2022-10-02T00:24:09.323Z,43.20
2022-10-02T00:26:49.441Z,43.42
2022-10-02T00:29:15.791Z,43.39
2022-10-02T00:32:10.515Z,43.41
2022-10-02T00:34:52.113Z,43.55
2022-10-02T00:37:38.321Z,43.52
2022-10-02T00:40:19.583Z,43.40
2022-10-02T00:43:23.231Z,43.52
2022-10-02T00:46:14.815Z,43.45
2022-10-02T00:48:41.154Z,43.65
2022-10-02T00:51:29.158Z,43.55
2022-10-02T00:54:16.100Z,43.38
2022-10-02T00:56:57.074Z,43.48
2022-10-02T00:59:36.117Z,43.44
2022-10-02T01:02:12.842Z,43.39
2022-10-02T01:04:39.437Z,43.50
2022-10-02T01:07:07.291Z,43.45
2022-10-02T01:09:34.087Z,43.55
2022-10-02T01:12:00.787Z,43.60
2022-10-02T01:14:38.350Z,43.53
2022-10-02T01:17:23.458Z,43.22
2022-10-02T01:19:49.978Z,43.61
2022-10-02T01:22:36.052Z,43.62
2022-10-02T01:25:06.295Z,43.52
2022-10-02T01:27:35.519Z,43.43
2022-10-02T01:30:14.297Z,43.35
2022-10-02T01:32:54.998Z,43.41
2022-10-02T01:35:26.513Z,43.59
2022-10-02T01:37:52.979Z,43.61
2022-10-02T01:40:31.172Z,43.55
2022-10-02T01:43:22.081Z,43.68
2022-10-02T01:46:07.175Z,43.52
2022-10-02T01:48:46.160Z,43.73
2022-10-02T01:51:28.913Z,43.75
2022-10-02T01:54:05.109Z,43.83
2022-10-02T01:56:35.404Z,43.78
2022-10-02T01:59:17.824Z,43.71
2022-10-02T02:01:47.010Z,43.77
2022-10-02T02:04:24.130Z,43.76
2022-10-02T02:07:08.519Z,43.67
2022-10-02T02:09:38.697Z,43.63
2022-10-02T02:12:26.012Z,43.90
2022-10-02T02:15:16.403Z,43.90
2022-10-02T02:17:52.191Z,43.78
2022-10-02T02:20:26.807Z,43.60
2022-10-02T02:22:53.675Z,43.87
2022-10-02T02:25:22.293Z,43.65
2022-10-02T02:27:51.074Z,43.66
2022-10-02T02:30:17.617Z,43.71
2022-10-02T02:32:50.418Z,43.75
2022-10-02T02:35:27.946Z,43.79
2022-10-02T02:37:56.202Z,43.75
2022-10-02T02:40:28.518Z,44.00
2022-10-02T02:42:58.787Z,43.68
2022-10-02T02:45:38.854Z,43.78
2022-10-02T02:48:10.797Z,43.70
2022-10-02T02:50:43.355Z,43.92
2022-10-02T02:53:26.383Z,43.75
2022-10-02T02:55:57.970Z,43.80
2022-10-02T02:58:37.963Z,43.76
2022-10-02T03:01:04.471Z,43.96
2022-10-02T03:03:30.953Z,43.65
2022-10-02T03:06:18.373Z,43.90
2022-10-02T03:08:44.819Z,43.88
2022-10-02T03:11:46.803Z,43.81
2022-10-02T03:14:34.150Z,43.75
2022-10-02T03:17:38.014Z,43.89
2022-10-02T03:20:28.978Z,43.89
2022-10-02T03:23:43.706Z,43.83
2022-10-02T03:26:14.155Z,43.96
2022-10-02T03:28:57.413Z,43.93
2022-10-02T03:31:25.255Z,43.77
2022-10-02T03:33:53.533Z,44.06
2022-10-02T03:36:21.132Z,43.89
2022-10-02T03:38:57.000Z,43.78
2022-10-02T03:41:32.916Z,43.87
2022-10-02T03:43:59.373Z,43.81
2022-10-02T03:46:25.855Z,43.72
2022-10-02T03:48:52.415Z,43.87
2022-10-02T03:51:18.875Z,43.82
2022-10-02T03:53:45.381Z,43.85
2022-10-02T03:56:35.982Z,43.67
2022-10-02T03:59:03.129Z,43.91
2022-10-02T04:01:35.267Z,43.81
2022-10-02T04:04:17.720Z,43.69
2022-10-02T04:06:48.915Z,43.70
2022-10-02T04:09:31.860Z,43.74
2022-10-02T04:12:04.406Z,43.76
2022-10-02T04:14:35.293Z,43.75
2022-10-02T04:17:43.979Z,43.82
2022-10-02T04:20:26.113Z,43.85
2022-10-02T04:23:11.920Z,43.84
2022-10-02T04:25:41.448Z,43.90
2022-10-02T04:28:11.950Z,43.90
2022-10-02T04:30:38.445Z,43.78
2022-10-02T04:33:12.895Z,43.98
2022-10-02T04:35:48.694Z,43.81
2022-10-02T04:38:29.259Z,43.79
2022-10-02T04:41:10.478Z,44.00
2022-10-02T04:43:51.745Z,43.86
2022-10-02T04:46:27.204Z,43.90
2022-10-02T04:49:03.258Z,43.89
2022-10-02T04:52:01.487Z,43.81
2022-10-02T04:54:51.012Z,43.92
2022-10-02T04:57:39.307Z,43.88
2022-10-02T05:00:14.062Z,43.63
2022-10-02T05:03:14.024Z,44.00
2022-10-02T05:06:02.291Z,43.92
2022-10-02T05:08:59.088Z,43.92
2022-10-02T05:11:58.296Z,44.08
2022-10-02T05:14:36.599Z,43.91
2022-10-02T05:17:24.614Z,44.20
2022-10-02T05:19:57.187Z,44.11
2022-10-02T05:22:37.101Z,44.14
2022-10-02T05:25:25.489Z,44.07
2022-10-02T05:28:00.737Z,44.18
2022-10-02T05:30:27.305Z,44.01
2022-10-02T05:33:12.551Z,44.19
2022-10-02T05:35:57.682Z,44.05
2022-10-02T05:38:30.164Z,44.06
2022-10-02T05:41:26.266Z,43.95
2022-10-02T05:43:54.773Z,43.99
2022-10-02T05:46:26.154Z,43.87
2022-10-02T05:49:02.592Z,43.85
2022-10-02T05:51:37.772Z,43.83
2022-10-02T05:54:13.138Z,43.93
2022-10-02T05:56:41.205Z,43.79
2022-10-02T05:59:35.037Z,44.06
2022-10-02T06:02:16.503Z,44.00
2022-10-02T06:04:45.454Z,44.01
2022-10-02T06:07:13.499Z,43.78
2022-10-02T06:09:57.650Z,43.79
2022-10-02T06:12:44.381Z,43.95
2022-10-02T06:15:22.758Z,43.77
2022-10-02T06:17:59.328Z,43.82
2022-10-02T06:20:37.853Z,43.81
2022-10-02T06:23:15.014Z,44.02
2022-10-02T06:25:54.764Z,43.90
2022-10-02T06:28:34.016Z,43.98
2022-10-02T06:31:04.221Z,43.90
2022-10-02T06:33:31.316Z,44.02
2022-10-02T06:35:57.625Z,44.11
2022-10-02T06:38:55.501Z,43.97
2022-10-02T06:41:31.452Z,44.00
2022-10-02T06:44:19.029Z,44.06
2022-10-02T06:47:13.954Z,44.03
2022-10-02T06:50:04.925Z,44.12
2022-10-02T06:53:06.954Z,44.27
2022-10-02T06:55:48.796Z,44.02
2022-10-02T06:58:15.103Z,43.98
2022-10-02T07:01:03.858Z,43.35
2022-10-02T07:03:30.211Z,43.82
2022-10-02T07:06:29.251Z,43.61
2022-10-02T07:09:14.359Z,43.46
2022-10-02T07:11:56.014Z,43.60
2022-10-02T07:14:27.936Z,43.71
2022-10-02T07:17:36.108Z,43.71
2022-10-02T07:20:34.198Z,43.52
2022-10-02T07:23:19.579Z,43.78
2022-10-02T07:25:56.070Z,43.77
2022-10-02T07:28:46.843Z,44.13
2022-10-02T07:31:35.088Z,44.02
2022-10-02T07:34:15.883Z,44.41
2022-10-02T07:37:06.145Z,44.71
2022-10-02T07:40:13.869Z,44.91
2022-10-02T07:42:45.230Z,44.64
2022-10-02T07:45:33.854Z,44.54
2022-10-02T07:48:01.405Z,45.17
2022-10-02T07:50:30.536Z,45.01
2022-10-02T07:53:18.298Z,45.07
2022-10-02T07:55:44.937Z,45.27
2022-10-02T07:58:18.844Z,45.30
2022-10-02T08:00:50.430Z,45.38
2022-10-02T08:03:35.649Z,45.63
2022-10-02T08:06:02.170Z,48.03
2022-10-02T08:09:05.610Z,46.73
2022-10-02T08:11:38.698Z,46.82
2022-10-02T08:14:18.195Z,46.92
2022-10-02T08:16:49.093Z,46.59
2022-10-02T08:19:17.277Z,46.48
2022-10-02T08:21:47.124Z,46.87
2022-10-02T08:24:15.771Z,46.76
2022-10-02T08:26:49.435Z,47.84
2022-10-02T08:29:26.039Z,47.58
2022-10-02T08:31:53.171Z,47.20
2022-10-02T08:34:21.580Z,47.31
2022-10-02T08:36:50.950Z,47.39
2022-10-02T08:40:00.694Z,47.03
2022-10-02T08:43:04.125Z,46.94
2022-10-02T08:46:15.188Z,46.87
2022-10-02T08:48:54.814Z,46.78
2022-10-02T08:51:55.072Z,47.24
2022-10-02T08:54:47.222Z,46.57
2022-10-02T08:57:18.615Z,47.01
2022-10-02T09:00:06.978Z,46.82
2022-10-02T09:03:08.393Z,46.66
2022-10-02T09:06:12.081Z,46.71
2022-10-02T09:09:26.490Z,46.83
2022-10-02T09:12:29.459Z,46.40
2022-10-02T09:14:59.317Z,46.59
2022-10-02T09:17:47.555Z,46.64
2022-10-02T09:20:26.210Z,46.17
2022-10-02T09:23:07.825Z,46.55
2022-10-02T09:25:56.217Z,46.80
2022-10-02T09:28:50.575Z,46.23
2022-10-02T09:31:52.313Z,46.41
2022-10-02T09:34:26.583Z,47.00
2022-10-02T09:37:16.084Z,46.57
2022-10-02T09:40:10.087Z,46.48
2022-10-02T09:43:09.429Z,46.45
2022-10-02T09:45:36.820Z,46.45
2022-10-02T09:48:33.945Z,46.72
2022-10-02T09:51:05.279Z,46.72
2022-10-02T09:53:53.033Z,46.85
2022-10-02T09:56:42.502Z,46.60
2022-10-02T09:59:30.089Z,46.83
2022-10-02T10:02:21.312Z,46.41
2022-10-02T10:05:13.999Z,46.32
2022-10-02T10:08:03.799Z,46.37
2022-10-02T10:10:51.659Z,46.38
2022-10-02T10:13:49.486Z,46.13
2022-10-02T10:16:33.088Z,46.13
2022-10-02T10:19:17.799Z,45.96
2022-10-02T10:22:07.892Z,46.02
2022-10-02T10:24:39.669Z,45.85
2022-10-02T10:27:15.197Z,45.90
2022-10-02T10:30:12.064Z,46.14
2022-10-02T10:33:03.815Z,46.05
2022-10-02T10:36:05.343Z,45.89
2022-10-02T10:38:52.191Z,45.98
2022-10-02T10:41:37.705Z,45.86
2022-10-02T10:44:23.293Z,45.70
2022-10-02T10:46:49.611Z,45.60
2022-10-02T10:49:44.618Z,45.64
2022-10-02T10:52:39.029Z,45.44
2022-10-02T10:55:12.257Z,45.55
2022-10-02T10:58:30.044Z,45.55
2022-10-02T11:01:17.357Z,45.72
2022-10-02T11:04:10.054Z,45.47
2022-10-02T11:06:56.145Z,45.51
2022-10-02T11:09:50.707Z,45.70
2022-10-02T11:12:39.109Z,45.53
2022-10-02T11:15:12.998Z,46.01
2022-10-02T11:18:01.007Z,46.10
2022-10-02T11:20:42.076Z,46.54
2022-10-02T11:23:34.562Z,46.22
2022-10-02T11:26:21.162Z,46.37
2022-10-02T11:29:12.455Z,46.52
2022-10-02T11:32:06.410Z,46.70
2022-10-02T11:34:54.602Z,46.47
2022-10-02T11:37:40.733Z,46.66
2022-10-02T11:40:19.166Z,46.49
2022-10-02T11:43:02.361Z,45.81
2022-10-02T11:46:25.931Z,46.03
2022-10-02T11:49:25.143Z,46.02
2022-10-02T11:52:15.868Z,45.87
2022-10-02T11:54:50.987Z,45.70
2022-10-02T11:57:29.926Z,45.68
2022-10-02T12:00:35.901Z,45.88
2022-10-02T12:03:09.445Z,45.85
2022-10-02T12:05:53.342Z,46.26
2022-10-02T12:08:59.168Z,46.39
2022-10-02T12:11:50.305Z,46.42
2022-10-02T12:14:47.035Z,46.31
2022-10-02T12:17:36.568Z,46.51
2022-10-02T12:20:29.730Z,46.53
2022-10-02T12:23:46.621Z,46.33
2022-10-02T12:27:00.757Z,46.48
2022-10-02T12:29:51.447Z,46.24
2022-10-02T12:32:29.568Z,46.21
2022-10-02T12:35:33.427Z,46.50
2022-10-02T12:38:25.370Z,46.34
2022-10-02T12:41:00.705Z,46.22
2022-10-02T12:44:05.619Z,46.14
2022-10-02T12:46:47.555Z,46.14
2022-10-02T12:49:38.421Z,46.07
2022-10-02T12:52:27.925Z,46.27
2022-10-02T12:55:12.353Z,45.87
2022-10-02T12:57:55.858Z,45.98
2022-10-02T13:00:29.365Z,46.06
2022-10-02T13:03:19.881Z,45.68
2022-10-02T13:06:23.403Z,45.64
2022-10-02T13:09:05.949Z,45.54
2022-10-02T13:11:41.506Z,45.50
2022-10-02T13:14:44.185Z,45.41
2022-10-02T13:17:29.441Z,45.49
2022-10-02T13:19:58.558Z,45.33
2022-10-02T13:22:46.861Z,45.52
2022-10-02T13:25:37.830Z,45.47
2022-10-02T13:28:13.644Z,45.36
2022-10-02T13:30:55.001Z,45.46
2022-10-02T13:33:33.547Z,45.45
2022-10-02T13:36:19.194Z,45.18
2022-10-02T13:39:02.021Z,45.40
2022-10-02T13:41:55.451Z,45.50
2022-10-02T13:45:06.487Z,45.24
2022-10-02T13:47:40.331Z,45.34
2022-10-02T13:50:28.488Z,45.30
2022-10-02T13:53:20.783Z,45.21
2022-10-02T13:56:00.214Z,44.44
2022-10-02T13:58:51.287Z,44.30
2022-10-02T14:01:45.144Z,44.37
2022-10-02T14:04:23.380Z,44.08
2022-10-02T14:07:01.906Z,44.28
2022-10-02T14:09:40.455Z,44.23
2022-10-02T14:12:30.043Z,44.01
2022-10-02T14:15:02.448Z,44.36
2022-10-02T14:17:44.135Z,44.39
2022-10-02T14:20:34.780Z,44.46
2022-10-02T14:23:16.098Z,44.76
2022-10-02T14:25:48.947Z,44.77
2022-10-02T14:28:44.913Z,44.70
2022-10-02T14:31:50.247Z,44.73
2022-10-02T14:34:38.799Z,44.84
2022-10-02T14:37:23.409Z,44.76
2022-10-02T14:39:49.847Z,44.78
2022-10-02T14:42:38.012Z,44.87
2022-10-02T14:45:24.648Z,44.82
2022-10-02T14:48:13.005Z,45.08
2022-10-02T14:50:58.159Z,44.67
2022-10-02T14:53:54.835Z,44.90
2022-10-02T14:56:59.243Z,45.06
2022-10-02T14:59:37.967Z,45.25
2022-10-02T15:02:08.759Z,45.17
2022-10-02T15:05:03.587Z,45.32
2022-10-02T15:07:31.028Z,45.14
2022-10-02T15:10:16.805Z,45.24
2022-10-02T15:13:09.855Z,45.30
2022-10-02T15:15:43.122Z,45.28
2022-10-02T15:18:31.210Z,45.21
2022-10-02T15:21:08.043Z,45.14
2022-10-02T15:23:50.710Z,44.97
2022-10-02T15:26:36.118Z,45.15
2022-10-02T15:29:25.982Z,45.01
2022-10-02T15:32:20.151Z,45.02
2022-10-02T15:34:55.306Z,44.84
2022-10-02T15:37:26.466Z,45.08
2022-10-02T15:40:06.745Z,44.73
2022-10-02T15:42:33.089Z,44.98
2022-10-02T15:45:19.439Z,44.98
2022-10-02T15:47:57.956Z,45.23
2022-10-02T15:50:29.721Z,44.71
2022-10-02T15:53:18.261Z,44.88
2022-10-02T15:55:49.940Z,45.07
2022-10-02T15:58:41.517Z,45.00
2022-10-02T16:01:20.081Z,44.88
2022-10-02T16:03:51.290Z,44.62
2022-10-02T16:06:29.199Z,44.64
2022-10-02T16:09:18.119Z,44.69
2022-10-02T16:12:04.985Z,45.03
2022-10-02T16:14:55.577Z,45.02
2022-10-02T16:17:24.065Z,45.13
2022-10-02T16:20:27.131Z,46.04
2022-10-02T16:23:24.400Z,46.45
2022-10-02T16:26:05.891Z,45.10
2022-10-02T16:28:41.877Z,45.81
2022-10-02T16:31:38.997Z,45.69
2022-10-02T16:34:36.941Z,45.94
2022-10-02T16:37:26.524Z,46.20
2022-10-02T16:40:03.244Z,46.88
2022-10-02T16:42:32.432Z,47.08
2022-10-02T16:45:18.143Z,47.22
2022-10-02T16:47:51.219Z,47.47
2022-10-02T16:50:23.669Z,47.56
2022-10-02T16:53:15.118Z,47.42
2022-10-02T16:55:50.945Z,47.41
2022-10-02T16:58:32.610Z,47.11
2022-10-02T17:01:05.146Z,47.72
2022-10-02T17:03:36.892Z,47.93
2022-10-02T17:06:18.240Z,47.22
2022-10-02T17:08:53.966Z,47.89
2022-10-02T17:11:30.660Z,47.58
2022-10-02T17:14:15.642Z,47.55
2022-10-02T17:16:56.555Z,47.28
2022-10-02T17:19:27.711Z,47.83
2022-10-02T17:22:06.185Z,47.57
2022-10-02T17:24:54.936Z,46.95
2022-10-02T17:27:33.797Z,47.53
2022-10-02T17:30:18.805Z,47.34
2022-10-02T17:32:51.135Z,47.47
2022-10-02T17:35:38.890Z,47.64
2022-10-02T17:38:25.498Z,46.70
2022-10-02T17:41:02.454Z,47.89
2022-10-02T17:43:31.325Z,47.17
2022-10-02T17:46:22.440Z,47.56
2022-10-02T17:48:54.025Z,47.12
2022-10-02T17:52:00.013Z,46.90
2022-10-02T17:54:58.603Z,48.16
2022-10-02T17:57:50.319Z,48.29
2022-10-02T18:00:21.154Z,48.61
2022-10-02T18:03:20.023Z,48.51
2022-10-02T18:06:06.247Z,48.69
2022-10-02T18:08:41.853Z,48.44
2022-10-02T18:11:10.544Z,48.64
2022-10-02T18:14:31.191Z,48.87
2022-10-02T18:17:06.437Z,48.68
2022-10-02T18:19:41.970Z,48.82
2022-10-02T18:22:35.155Z,48.65
2022-10-02T18:25:27.426Z,48.34
2022-10-02T18:28:21.752Z,48.63
2022-10-02T18:31:13.008Z,48.84
2022-10-02T18:33:52.611Z,49.77
2022-10-02T18:36:51.775Z,48.34
2022-10-02T18:39:25.163Z,48.42
2022-10-02T18:42:14.030Z,48.32
2022-10-02T18:44:44.933Z,47.67
2022-10-02T18:47:28.531Z,48.34
2022-10-02T18:50:20.994Z,48.39
2022-10-02T18:53:06.228Z,48.04
2022-10-02T18:55:38.667Z,47.49
2022-10-02T18:58:31.585Z,47.15
2022-10-02T19:01:07.974Z,47.30
2022-10-02T19:03:43.895Z,47.17
2022-10-02T19:06:29.208Z,47.12
2022-10-02T19:09:07.557Z,47.58
2022-10-02T19:11:36.171Z,47.32
2022-10-02T19:14:16.105Z,46.69
2022-10-02T19:17:11.929Z,47.58
2022-10-02T19:19:39.727Z,47.84
2022-10-02T19:22:16.156Z,47.53
2022-10-02T19:24:42.848Z,47.96
2022-10-02T19:27:13.538Z,47.54
2022-10-02T19:29:45.307Z,47.45
2022-10-02T19:32:18.388Z,47.96
2022-10-02T19:34:47.162Z,48.08
2022-10-02T19:37:15.161Z,47.89
2022-10-02T19:39:44.537Z,47.92
2022-10-02T19:42:19.154Z,47.85
2022-10-02T19:44:49.974Z,47.55
2022-10-02T19:47:23.651Z,47.64
2022-10-02T19:49:50.521Z,47.71
2022-10-02T19:52:36.128Z,47.48
2022-10-02T19:55:32.829Z,47.67
2022-10-02T19:58:06.350Z,47.46
2022-10-02T20:00:37.733Z,47.85
2022-10-02T20:03:07.411Z,47.82
2022-10-02T20:05:34.121Z,47.77
2022-10-02T20:08:06.771Z,48.00
2022-10-02T20:11:08.594Z,47.71
2022-10-02T20:13:38.852Z,47.97
2022-10-02T20:16:40.201Z,47.79
2022-10-02T20:19:07.609Z,48.08
2022-10-02T20:21:39.189Z,47.89
2022-10-02T20:24:12.863Z,47.99
2022-10-02T20:26:41.882Z,47.75
2022-10-02T20:29:18.668Z,47.95
2022-10-02T20:31:50.358Z,48.20
2022-10-02T20:34:20.642Z,48.21
2022-10-02T20:36:58.307Z,47.75
2022-10-02T20:39:28.985Z,47.80
2022-10-02T20:41:59.227Z,47.90
2022-10-02T20:44:26.886Z,48.13
2022-10-02T20:47:01.840Z,48.04
2022-10-02T20:50:12.340Z,47.86
2022-10-02T20:52:49.030Z,47.94
2022-10-02T20:55:30.224Z,47.98
2022-10-02T20:58:36.817Z,47.80
2022-10-02T21:01:18.980Z,48.05
2022-10-02T21:03:48.331Z,47.71
2022-10-02T21:06:18.251Z,47.56
2022-10-02T21:09:05.610Z,47.74
2022-10-02T21:11:47.266Z,48.07
2022-10-02T21:14:32.577Z,47.80
2022-10-02T21:17:22.479Z,47.90
2022-10-02T21:20:49.855Z,48.00
2022-10-02T21:23:44.627Z,47.31
2022-10-02T21:26:19.928Z,47.85
2022-10-02T21:28:46.221Z,47.44
2022-10-02T21:31:27.629Z,47.29
2022-10-02T21:34:31.880Z,47.41
2022-10-02T21:37:13.042Z,47.52
2022-10-02T21:40:08.588Z,47.56
2022-10-02T21:42:50.201Z,47.36
2022-10-02T21:45:32.809Z,47.18
2022-10-02T21:48:17.960Z,47.25
2022-10-02T21:51:14.863Z,47.41
2022-10-02T21:54:24.694Z,47.25
2022-10-02T21:57:18.611Z,47.42
2022-10-02T22:00:14.175Z,47.33
2022-10-02T22:03:05.026Z,47.15
2022-10-02T22:05:56.252Z,47.29
2022-10-02T22:08:45.861Z,47.07
2022-10-02T22:11:33.373Z,47.27
2022-10-02T22:14:05.116Z,47.32
2022-10-02T22:16:40.526Z,47.34
2022-10-02T22:19:20.474Z,47.51
2022-10-02T22:22:05.131Z,47.14
2022-10-02T22:24:41.358Z,47.17
2022-10-02T22:27:11.019Z,47.37
2022-10-02T22:29:53.123Z,47.52
2022-10-02T22:32:53.751Z,47.09
2022-10-02T22:35:53.978Z,47.13
2022-10-02T22:38:34.186Z,47.29
2022-10-02T22:41:16.053Z,47.54
2022-10-02T22:44:02.405Z,47.08
2022-10-02T22:46:54.684Z,47.21
2022-10-02T22:49:43.039Z,47.25
2022-10-02T22:52:21.658Z,47.00
2022-10-02T22:55:06.573Z,47.16
2022-10-02T22:57:43.342Z,46.67
2022-10-02T23:00:19.920Z,46.50
2022-10-02T23:02:49.326Z,46.76
2022-10-02T23:05:33.399Z,46.55
2022-10-02T23:08:02.998Z,46.83
2022-10-02T23:10:33.478Z,46.53
2022-10-02T23:13:14.971Z,46.88
2022-10-02T23:16:01.773Z,46.61
2022-10-02T23:18:48.440Z,46.72
2022-10-02T23:21:43.146Z,46.54
2022-10-02T23:24:11.586Z,46.61
2022-10-02T23:26:48.743Z,46.75
2022-10-02T23:29:18.516Z,46.48
2022-10-02T23:32:35.499Z,46.75
2022-10-02T23:35:04.883Z,46.41
2022-10-02T23:37:33.642Z,46.58
2022-10-02T23:40:06.087Z,46.74
2022-10-02T23:42:56.359Z,46.84
2022-10-02T23:45:29.505Z,46.76
2022-10-02T23:47:59.585Z,46.70
2022-10-02T23:50:59.017Z,46.85
2022-10-02T23:54:02.827Z,46.71
2022-10-02T23:56:44.360Z,46.69
2022-10-02T23:59:25.700Z,46.71
